sensor_id;sensor_type;location;lat;lon;timestamp;temperature;humidity
65752;DHT22;52486;51.098;13.770;2024-02-23T00:01:26;21.80;69.10
65752;DHT22;52486;51.098;13.770;2024-02-23T00:03:51;21.80;69.60
65752;DHT22;52486;51.098;13.770;2024-02-23T00:06:17;21.50;69.40
65752;DHT22;52486;51.098;13.770;2024-02-23T00:08:42;21.60;68.80
65752;DHT22;52486;51.098;13.770;2024-02-23T00:11:08;21.40;69.40
65752;DHT22;52486;51.098;13.770;2024-02-23T00:13:34;21.50;68.80
65752;DHT22;52486;51.098;13.770;2024-02-23T00:15:59;21.50;69.40
65752;DHT22;52486;51.098;13.770;2024-02-23T00:18:25;21.60;69.70
65752;DHT22;52486;51.098;13.770;2024-02-23T00:20:50;21.70;69.60
65752;DHT22;52486;51.098;13.770;2024-02-23T00:23:16;21.60;69.60
65752;DHT22;52486;51.098;13.770;2024-02-23T00:25:41;21.50;69.60
65752;DHT22;52486;51.098;13.770;2024-02-23T00:28:07;21.40;69.50
65752;DHT22;52486;51.098;13.770;2024-02-23T00:30:33;21.70;69.50
65752;DHT22;52486;51.098;13.770;2024-02-23T00:32:58;21.60;69.60
65752;DHT22;52486;51.098;13.770;2024-02-23T00:35:24;21.60;70.40
65752;DHT22;52486;51.098;13.770;2024-02-23T00:37:49;21.40;69.60
65752;DHT22;52486;51.098;13.770;2024-02-23T00:40:14;21.50;69.50
65752;DHT22;52486;51.098;13.770;2024-02-23T00:42:41;21.60;69.40
65752;DHT22;52486;51.098;13.770;2024-02-23T00:45:06;21.60;69.60
65752;DHT22;52486;51.098;13.770;2024-02-23T00:47:32;21.40;68.40
65752;DHT22;52486;51.098;13.770;2024-02-23T00:49:57;21.60;69.00
65752;DHT22;52486;51.098;13.770;2024-02-23T00:52:23;21.40;68.90
65752;DHT22;52486;51.098;13.770;2024-02-23T00:54:48;21.50;69.70
65752;DHT22;52486;51.098;13.770;2024-02-23T00:57:14;21.50;69.60
65752;DHT22;52486;51.098;13.770;2024-02-23T00:59:39;21.50;69.60
65752;DHT22;52486;51.098;13.770;2024-02-23T01:02:05;23.30;70.50
65752;DHT22;52486;51.098;13.770;2024-02-23T01:04:31;21.50;69.20
65752;DHT22;52486;51.098;13.770;2024-02-23T01:06:57;21.60;69.60
65752;DHT22;52486;51.098;13.770;2024-02-23T01:09:23;21.40;68.90
65752;DHT22;52486;51.098;13.770;2024-02-23T01:11:48;21.60;69.00
65752;DHT22;52486;51.098;13.770;2024-02-23T01:14:14;21.50;69.70
65752;DHT22;52486;51.098;13.770;2024-02-23T01:16:39;21.40;68.90
65752;DHT22;52486;51.098;13.770;2024-02-23T01:19:05;21.50;69.60
65752;DHT22;52486;51.098;13.770;2024-02-23T01:21:30;21.60;69.70
65752;DHT22;52486;51.098;13.770;2024-02-23T01:23:56;23.80;71.00
65752;DHT22;52486;51.098;13.770;2024-02-23T01:26:23;21.60;69.60
65752;DHT22;52486;51.098;13.770;2024-02-23T01:28:48;24.10;70.90
65752;DHT22;52486;51.098;13.770;2024-02-23T01:31:14;21.30;69.60
65752;DHT22;52486;51.098;13.770;2024-02-23T01:33:39;21.60;69.60
65752;DHT22;52486;51.098;13.770;2024-02-23T01:36:05;21.50;69.70
65752;DHT22;52486;51.098;13.770;2024-02-23T01:38:31;21.50;69.30
65752;DHT22;52486;51.098;13.770;2024-02-23T01:41:00;21.50;69.50
65752;DHT22;52486;51.098;13.770;2024-02-23T01:43:26;21.50;67.20
65752;DHT22;52486;51.098;13.770;2024-02-23T01:45:52;21.60;69.70
65752;DHT22;52486;51.098;13.770;2024-02-23T01:48:18;21.50;69.60
65752;DHT22;52486;51.098;13.770;2024-02-23T01:50:44;21.50;69.50
65752;DHT22;52486;51.098;13.770;2024-02-23T01:53:09;21.40;69.30
65752;DHT22;52486;51.098;13.770;2024-02-23T01:55:35;21.50;70.20
65752;DHT22;52486;51.098;13.770;2024-02-23T01:58:01;21.40;69.30
65752;DHT22;52486;51.098;13.770;2024-02-23T02:00:27;21.40;69.50
65752;DHT22;52486;51.098;13.770;2024-02-23T02:02:53;24.30;70.90
65752;DHT22;52486;51.098;13.770;2024-02-23T02:05:19;21.50;68.80
65752;DHT22;52486;51.098;13.770;2024-02-23T02:07:45;21.50;69.60
65752;DHT22;52486;51.098;13.770;2024-02-23T02:10:12;21.70;68.90
65752;DHT22;52486;51.098;13.770;2024-02-23T02:12:38;22.20;69.80
65752;DHT22;52486;51.098;13.770;2024-02-23T02:15:03;22.60;70.20
65752;DHT22;52486;51.098;13.770;2024-02-23T02:17:29;21.50;68.80
65752;DHT22;52486;51.098;13.770;2024-02-23T02:19:55;21.60;69.50
65752;DHT22;52486;51.098;13.770;2024-02-23T02:22:20;21.50;69.20
65752;DHT22;52486;51.098;13.770;2024-02-23T02:24:46;21.50;68.70
65752;DHT22;52486;51.098;13.770;2024-02-23T02:27:12;21.60;69.20
65752;DHT22;52486;51.098;13.770;2024-02-23T02:29:37;21.40;69.40
65752;DHT22;52486;51.098;13.770;2024-02-23T02:32:03;21.30;68.70
65752;DHT22;52486;51.098;13.770;2024-02-23T02:34:28;21.40;68.90
65752;DHT22;52486;51.098;13.770;2024-02-23T02:36:54;21.50;68.80
65752;DHT22;52486;51.098;13.770;2024-02-23T02:39:20;21.60;69.40
65752;DHT22;52486;51.098;13.770;2024-02-23T02:41:47;21.60;69.50
65752;DHT22;52486;51.098;13.770;2024-02-23T02:44:13;23.30;70.30
65752;DHT22;52486;51.098;13.770;2024-02-23T02:46:39;21.60;69.10
65752;DHT22;52486;51.098;13.770;2024-02-23T02:49:04;21.40;69.40
65752;DHT22;52486;51.098;13.770;2024-02-23T02:51:30;21.60;69.40
65752;DHT22;52486;51.098;13.770;2024-02-23T02:53:55;23.90;70.70
65752;DHT22;52486;51.098;13.770;2024-02-23T02:56:21;21.50;69.50
65752;DHT22;52486;51.098;13.770;2024-02-23T02:58:46;23.00;70.20
65752;DHT22;52486;51.098;13.770;2024-02-23T03:01:12;21.50;69.40
65752;DHT22;52486;51.098;13.770;2024-02-23T03:03:37;21.50;68.70
65752;DHT22;52486;51.098;13.770;2024-02-23T03:06:03;21.50;69.30
65752;DHT22;52486;51.098;13.770;2024-02-23T03:08:29;21.40;68.80
65752;DHT22;52486;51.098;13.770;2024-02-23T03:10:54;21.30;69.20
65752;DHT22;52486;51.098;13.770;2024-02-23T03:13:20;21.30;68.70
65752;DHT22;52486;51.098;13.770;2024-02-23T03:15:45;21.40;68.50
65752;DHT22;52486;51.098;13.770;2024-02-23T03:18:11;21.60;69.40
65752;DHT22;52486;51.098;13.770;2024-02-23T03:20:38;21.80;69.20
65752;DHT22;52486;51.098;13.770;2024-02-23T03:23:03;21.40;69.30
65752;DHT22;52486;51.098;13.770;2024-02-23T03:25:29;21.30;68.50
65752;DHT22;52486;51.098;13.770;2024-02-23T03:27:54;23.10;70.20
65752;DHT22;52486;51.098;13.770;2024-02-23T03:30:20;21.50;69.00
65752;DHT22;52486;51.098;13.770;2024-02-23T03:32:46;21.50;68.90
65752;DHT22;52486;51.098;13.770;2024-02-23T03:35:12;21.60;69.00
65752;DHT22;52486;51.098;13.770;2024-02-23T03:37:38;21.40;68.60
65752;DHT22;52486;51.098;13.770;2024-02-23T03:40:07;21.50;69.00
65752;DHT22;52486;51.098;13.770;2024-02-23T03:42:33;21.40;66.70
65752;DHT22;52486;51.098;13.770;2024-02-23T03:44:58;21.50;69.10
65752;DHT22;52486;51.098;13.770;2024-02-23T03:47:24;21.40;68.30
65752;DHT22;52486;51.098;13.770;2024-02-23T03:49:49;24.00;70.70
65752;DHT22;52486;51.098;13.770;2024-02-23T03:52:15;21.40;68.40
65752;DHT22;52486;51.098;13.770;2024-02-23T03:54:41;21.40;68.80
65752;DHT22;52486;51.098;13.770;2024-02-23T03:57:06;21.20;68.90
65752;DHT22;52486;51.098;13.770;2024-02-23T03:59:32;21.50;69.10
65752;DHT22;52486;51.098;13.770;2024-02-23T04:01:57;21.40;69.00
65752;DHT22;52486;51.098;13.770;2024-02-23T04:04:23;21.30;68.30
65752;DHT22;52486;51.098;13.770;2024-02-23T04:06:48;21.50;68.40
65752;DHT22;52486;51.098;13.770;2024-02-23T04:09:14;21.30;68.20
65752;DHT22;52486;51.098;13.770;2024-02-23T04:11:39;21.60;69.10
65752;DHT22;52486;51.098;13.770;2024-02-23T04:14:05;21.30;68.90
65752;DHT22;52486;51.098;13.770;2024-02-23T04:16:30;21.80;69.00
65752;DHT22;52486;51.098;13.770;2024-02-23T04:18:56;21.50;68.80
65752;DHT22;52486;51.098;13.770;2024-02-23T04:21:22;21.20;68.00
65752;DHT22;52486;51.098;13.770;2024-02-23T04:23:47;21.30;68.70
65752;DHT22;52486;51.098;13.770;2024-02-23T04:26:13;24.00;70.20
65752;DHT22;52486;51.098;13.770;2024-02-23T04:28:39;21.40;68.00
65752;DHT22;52486;51.098;13.770;2024-02-23T04:31:05;21.70;68.80
65752;DHT22;52486;51.098;13.770;2024-02-23T04:33:30;21.40;68.70
65752;DHT22;52486;51.098;13.770;2024-02-23T04:35:56;24.10;70.20
65752;DHT22;52486;51.098;13.770;2024-02-23T04:38:21;21.40;68.70
65752;DHT22;52486;51.098;13.770;2024-02-23T04:40:47;21.40;68.60
65752;DHT22;52486;51.098;13.770;2024-02-23T04:43:12;21.30;68.50
65752;DHT22;52486;51.098;13.770;2024-02-23T04:45:38;21.30;68.40
65752;DHT22;52486;51.098;13.770;2024-02-23T04:48:03;22.20;69.00
65752;DHT22;52486;51.098;13.770;2024-02-23T04:50:29;21.60;68.30
65752;DHT22;52486;51.098;13.770;2024-02-23T04:52:55;21.70;68.70
65752;DHT22;52486;51.098;13.770;2024-02-23T04:55:20;21.30;68.50
65752;DHT22;52486;51.098;13.770;2024-02-23T04:57:45;21.40;68.50
65752;DHT22;52486;51.098;13.770;2024-02-23T05:00:11;21.30;68.50
65752;DHT22;52486;51.098;13.770;2024-02-23T05:02:37;21.40;67.80
65752;DHT22;52486;51.098;13.770;2024-02-23T05:05:03;21.40;68.50
65752;DHT22;52486;51.098;13.770;2024-02-23T05:07:32;21.30;68.30
65752;DHT22;52486;51.098;13.770;2024-02-23T05:09:58;21.30;66.00
65752;DHT22;52486;51.098;13.770;2024-02-23T05:12:24;21.20;68.30
65752;DHT22;52486;51.098;13.770;2024-02-23T05:14:49;21.30;67.70
65752;DHT22;52486;51.098;13.770;2024-02-23T05:17:15;21.40;68.40
65752;DHT22;52486;51.098;13.770;2024-02-23T05:19:40;21.30;68.30
65752;DHT22;52486;51.098;13.770;2024-02-23T05:22:06;21.50;67.90
65752;DHT22;52486;51.098;13.770;2024-02-23T05:24:31;21.40;67.70
65752;DHT22;52486;51.098;13.770;2024-02-23T05:26:57;24.00;69.90
65752;DHT22;52486;51.098;13.770;2024-02-23T05:29:26;21.20;68.10
65752;DHT22;52486;51.098;13.770;2024-02-23T05:31:52;21.30;68.20
65752;DHT22;52486;51.098;13.770;2024-02-23T05:34:18;23.20;69.20
65752;DHT22;52486;51.098;13.770;2024-02-23T05:36:44;21.30;67.90
65752;DHT22;52486;51.098;13.770;2024-02-23T05:39:11;21.20;67.50
65752;DHT22;52486;51.098;13.770;2024-02-23T05:41:38;21.30;68.10
65752;DHT22;52486;51.098;13.770;2024-02-23T05:44:04;21.40;68.20
65752;DHT22;52486;51.098;13.770;2024-02-23T05:46:34;23.00;69.00
65752;DHT22;52486;51.098;13.770;2024-02-23T05:48:59;21.30;65.90
65752;DHT22;52486;51.098;13.770;2024-02-23T05:51:25;23.70;69.50
65752;DHT22;52486;51.098;13.770;2024-02-23T05:53:51;23.50;69.50
65752;DHT22;52486;51.098;13.770;2024-02-23T05:56:16;21.50;68.30
65752;DHT22;52486;51.098;13.770;2024-02-23T05:58:42;21.30;67.50
65752;DHT22;52486;51.098;13.770;2024-02-23T06:01:07;21.20;68.20
65752;DHT22;52486;51.098;13.770;2024-02-23T06:03:33;21.30;67.70
65752;DHT22;52486;51.098;13.770;2024-02-23T06:05:59;21.30;67.70
65752;DHT22;52486;51.098;13.770;2024-02-23T06:08:25;21.30;68.30
65752;DHT22;52486;51.098;13.770;2024-02-23T06:10:50;21.40;68.20
65752;DHT22;52486;51.098;13.770;2024-02-23T06:13:15;21.10;67.40
65752;DHT22;52486;51.098;13.770;2024-02-23T06:15:41;21.20;67.50
65752;DHT22;52486;51.098;13.770;2024-02-23T06:18:07;23.50;69.20
65752;DHT22;52486;51.098;13.770;2024-02-23T06:20:33;21.30;68.20
65752;DHT22;52486;51.098;13.770;2024-02-23T06:22:58;21.80;68.40
65752;DHT22;52486;51.098;13.770;2024-02-23T06:25:23;21.20;68.20
65752;DHT22;52486;51.098;13.770;2024-02-23T06:27:49;21.50;68.30
65752;DHT22;52486;51.098;13.770;2024-02-23T06:30:14;23.70;69.50
65752;DHT22;52486;51.098;13.770;2024-02-23T06:32:40;21.20;67.50
65752;DHT22;52486;51.098;13.770;2024-02-23T06:35:06;21.20;68.10
65752;DHT22;52486;51.098;13.770;2024-02-23T06:37:32;21.20;67.50
65752;DHT22;52486;51.098;13.770;2024-02-23T06:39:58;21.20;68.00
65752;DHT22;52486;51.098;13.770;2024-02-23T06:42:24;21.30;67.90
65752;DHT22;52486;51.098;13.770;2024-02-23T06:44:49;21.40;68.10
65752;DHT22;52486;51.098;13.770;2024-02-23T06:47:15;21.00;67.30
65752;DHT22;52486;51.098;13.770;2024-02-23T06:49:43;21.00;68.00
65752;DHT22;52486;51.098;13.770;2024-02-23T06:52:09;21.30;65.90
65752;DHT22;52486;51.098;13.770;2024-02-23T06:54:35;21.10;68.00
65752;DHT22;52486;51.098;13.770;2024-02-23T06:57:00;21.30;67.50
65752;DHT22;52486;51.098;13.770;2024-02-23T06:59:26;21.20;67.50
65752;DHT22;52486;51.098;13.770;2024-02-23T07:01:52;21.20;68.70
65752;DHT22;52486;51.098;13.770;2024-02-23T07:04:17;21.20;69.30
65752;DHT22;52486;51.098;13.770;2024-02-23T07:06:43;21.60;69.70
65752;DHT22;52486;51.098;13.770;2024-02-23T07:09:09;22.90;70.40
65752;DHT22;52486;51.098;13.770;2024-02-23T07:11:39;21.50;69.40
65752;DHT22;52486;51.098;13.770;2024-02-23T07:14:06;21.50;67.20
65752;DHT22;52486;51.098;13.770;2024-02-23T07:16:32;21.70;69.50
65752;DHT22;52486;51.098;13.770;2024-02-23T07:18:58;21.60;68.70
65752;DHT22;52486;51.098;13.770;2024-02-23T07:21:23;21.70;69.20
65752;DHT22;52486;51.098;13.770;2024-02-23T07:23:49;21.80;69.10
65752;DHT22;52486;51.098;13.770;2024-02-23T07:26:14;21.80;69.00
65752;DHT22;52486;51.098;13.770;2024-02-23T07:28:40;21.90;69.00
65752;DHT22;52486;51.098;13.770;2024-02-23T07:31:05;22.40;68.90
65752;DHT22;52486;51.098;13.770;2024-02-23T07:33:31;23.80;69.60
65752;DHT22;52486;51.098;13.770;2024-02-23T07:35:56;21.90;67.80
65752;DHT22;52486;51.098;13.770;2024-02-23T07:38:22;23.50;69.10
65752;DHT22;52486;51.098;13.770;2024-02-23T07:40:47;22.30;67.70
65752;DHT22;52486;51.098;13.770;2024-02-23T07:43:13;22.30;68.60
65752;DHT22;52486;51.098;13.770;2024-02-23T07:45:38;22.30;68.30
65752;DHT22;52486;51.098;13.770;2024-02-23T07:48:04;22.30;67.50
65752;DHT22;52486;51.098;13.770;2024-02-23T07:50:30;22.50;67.50
65752;DHT22;52486;51.098;13.770;2024-02-23T07:52:55;22.30;68.00
65752;DHT22;52486;51.098;13.770;2024-02-23T07:55:21;22.30;68.00
65752;DHT22;52486;51.098;13.770;2024-02-23T07:57:47;23.00;67.90
65752;DHT22;52486;51.098;13.770;2024-02-23T08:00:13;22.50;67.90
65752;DHT22;52486;51.098;13.770;2024-02-23T08:02:39;22.50;67.60
65752;DHT22;52486;51.098;13.770;2024-02-23T08:05:05;24.40;68.60
65752;DHT22;52486;51.098;13.770;2024-02-23T08:07:31;22.60;66.90
65752;DHT22;52486;51.098;13.770;2024-02-23T08:09:56;22.80;67.70
65752;DHT22;52486;51.098;13.770;2024-02-23T08:12:22;22.70;68.80
65752;DHT22;52486;51.098;13.770;2024-02-23T08:14:48;22.60;68.80
65752;DHT22;52486;51.098;13.770;2024-02-23T08:17:15;23.00;68.00
65752;DHT22;52486;51.098;13.770;2024-02-23T08:19:41;23.00;68.10
65752;DHT22;52486;51.098;13.770;2024-02-23T08:22:07;22.70;67.40
65752;DHT22;52486;51.098;13.770;2024-02-23T08:24:32;24.10;68.60
65752;DHT22;52486;51.098;13.770;2024-02-23T08:26:59;22.70;66.00
65752;DHT22;52486;51.098;13.770;2024-02-23T08:29:25;22.90;67.80
65752;DHT22;52486;51.098;13.770;2024-02-23T08:31:51;23.40;67.80
65752;DHT22;52486;51.098;13.770;2024-02-23T08:34:16;22.90;66.80
65752;DHT22;52486;51.098;13.770;2024-02-23T08:36:43;22.80;67.20
65752;DHT22;52486;51.098;13.770;2024-02-23T08:39:08;23.50;68.00
65752;DHT22;52486;51.098;13.770;2024-02-23T08:41:34;22.80;66.80
65752;DHT22;52486;51.098;13.770;2024-02-23T08:43:59;22.90;67.30
65752;DHT22;52486;51.098;13.770;2024-02-23T08:46:25;22.80;66.80
65752;DHT22;52486;51.098;13.770;2024-02-23T08:48:50;22.70;67.30
65752;DHT22;52486;51.098;13.770;2024-02-23T08:51:16;23.10;67.10
65752;DHT22;52486;51.098;13.770;2024-02-23T08:53:41;22.80;67.10
65752;DHT22;52486;51.098;13.770;2024-02-23T08:56:07;22.90;66.50
65752;DHT22;52486;51.098;13.770;2024-02-23T08:58:33;22.90;66.20
65752;DHT22;52486;51.098;13.770;2024-02-23T09:00:59;23.10;66.20
65752;DHT22;52486;51.098;13.770;2024-02-23T09:03:24;22.90;65.60
65752;DHT22;52486;51.098;13.770;2024-02-23T09:05:50;22.90;65.80
65752;DHT22;52486;51.098;13.770;2024-02-23T09:08:16;22.90;66.60
65752;DHT22;52486;51.098;13.770;2024-02-23T09:10:41;22.80;65.50
65752;DHT22;52486;51.098;13.770;2024-02-23T09:13:07;22.90;65.90
65752;DHT22;52486;51.098;13.770;2024-02-23T09:15:33;23.10;65.30
65752;DHT22;52486;51.098;13.770;2024-02-23T09:17:58;23.30;67.30
65752;DHT22;52486;51.098;13.770;2024-02-23T09:20:24;22.90;65.80
65752;DHT22;52486;51.098;13.770;2024-02-23T09:22:50;22.90;65.50
65752;DHT22;52486;51.098;13.770;2024-02-23T09:25:15;23.10;65.70
65752;DHT22;52486;51.098;13.770;2024-02-23T09:27:41;23.20;66.20
65752;DHT22;52486;51.098;13.770;2024-02-23T09:30:12;23.10;65.90
65752;DHT22;52486;51.098;13.770;2024-02-23T09:32:38;23.20;64.00
65752;DHT22;52486;51.098;13.770;2024-02-23T09:35:03;23.10;65.70
65752;DHT22;52486;51.098;13.770;2024-02-23T09:37:30;23.30;66.00
65752;DHT22;52486;51.098;13.770;2024-02-23T09:39:56;23.50;65.80
65752;DHT22;52486;51.098;13.770;2024-02-23T09:42:22;23.40;66.30
65752;DHT22;52486;51.098;13.770;2024-02-23T09:44:52;23.50;66.10
65752;DHT22;52486;51.098;13.770;2024-02-23T09:47:22;23.40;66.30
65752;DHT22;52486;51.098;13.770;2024-02-23T09:49:48;23.40;67.00
65752;DHT22;52486;51.098;13.770;2024-02-23T09:52:15;23.50;66.90
65752;DHT22;52486;51.098;13.770;2024-02-23T09:54:41;23.40;66.90
65752;DHT22;52486;51.098;13.770;2024-02-23T09:57:07;23.40;67.10
65752;DHT22;52486;51.098;13.770;2024-02-23T09:59:34;23.60;67.20
65752;DHT22;52486;51.098;13.770;2024-02-23T10:01:59;23.50;67.20
65752;DHT22;52486;51.098;13.770;2024-02-23T10:04:26;24.10;67.70
65752;DHT22;52486;51.098;13.770;2024-02-23T10:06:54;24.90;68.20
65752;DHT22;52486;51.098;13.770;2024-02-23T10:09:19;23.50;67.90
65752;DHT22;52486;51.098;13.770;2024-02-23T10:11:51;23.40;67.90
65752;DHT22;52486;51.098;13.770;2024-02-23T10:14:17;23.60;68.10
65752;DHT22;52486;51.098;13.770;2024-02-23T10:16:42;24.00;68.60
65752;DHT22;52486;51.098;13.770;2024-02-23T10:19:08;24.80;69.00
65752;DHT22;52486;51.098;13.770;2024-02-23T10:21:33;24.30;68.70
65752;DHT22;52486;51.098;13.770;2024-02-23T10:23:59;23.80;68.30
65752;DHT22;52486;51.098;13.770;2024-02-23T10:26:26;23.60;68.30
65752;DHT22;52486;51.098;13.770;2024-02-23T10:28:51;23.50;68.10
65752;DHT22;52486;51.098;13.770;2024-02-23T10:31:17;23.20;68.00
65752;DHT22;52486;51.098;13.770;2024-02-23T10:33:46;23.50;68.00
65752;DHT22;52486;51.098;13.770;2024-02-23T10:36:13;23.60;65.90
65752;DHT22;52486;51.098;13.770;2024-02-23T10:38:40;24.10;68.40
65752;DHT22;52486;51.098;13.770;2024-02-23T10:41:05;23.50;67.90
65752;DHT22;52486;51.098;13.770;2024-02-23T10:43:36;23.40;66.30
65752;DHT22;52486;51.098;13.770;2024-02-23T10:46:06;24.40;68.60
65752;DHT22;52486;51.098;13.770;2024-02-23T10:48:35;23.40;67.90
65752;DHT22;52486;51.098;13.770;2024-02-23T10:51:01;23.30;67.90
65752;DHT22;52486;51.098;13.770;2024-02-23T10:53:28;23.60;68.00
65752;DHT22;52486;51.098;13.770;2024-02-23T10:55:57;23.00;61.10
65752;DHT22;52486;51.098;13.770;2024-02-23T10:58:23;21.30;54.70
65752;DHT22;52486;51.098;13.770;2024-02-23T11:00:49;20.40;55.90
65752;DHT22;52486;51.098;13.770;2024-02-23T11:03:17;20.00;58.70
65752;DHT22;52486;51.098;13.770;2024-02-23T11:05:45;20.30;59.50
65752;DHT22;52486;51.098;13.770;2024-02-23T11:08:12;21.50;60.10
65752;DHT22;52486;51.098;13.770;2024-02-23T11:10:50;20.50;59.40
65752;DHT22;52486;51.098;13.770;2024-02-23T11:13:18;20.70;56.60
65752;DHT22;52486;51.098;13.770;2024-02-23T11:15:43;20.60;57.60
65752;DHT22;52486;51.098;13.770;2024-02-23T11:21:09;20.90;56.00
65752;DHT22;52486;51.098;13.770;2024-02-23T11:23:49;21.10;57.30
65752;DHT22;52486;51.098;13.770;2024-02-23T11:26:17;21.20;54.80
65752;DHT22;52486;51.098;13.770;2024-02-23T11:28:46;21.10;57.20
65752;DHT22;52486;51.098;13.770;2024-02-23T11:31:13;21.90;57.40
65752;DHT22;52486;51.098;13.770;2024-02-23T11:33:38;20.60;55.10
65752;DHT22;52486;51.098;13.770;2024-02-23T11:36:04;20.40;56.00
65752;DHT22;52486;51.098;13.770;2024-02-23T11:38:30;22.60;57.60
65752;DHT22;52486;51.098;13.770;2024-02-23T11:40:55;20.50;56.30
65752;DHT22;52486;51.098;13.770;2024-02-23T11:43:21;20.60;56.90
65752;DHT22;52486;51.098;13.770;2024-02-23T11:45:47;20.80;56.00
65752;DHT22;52486;51.098;13.770;2024-02-23T11:48:12;20.80;55.70
65752;DHT22;52486;51.098;13.770;2024-02-23T11:50:38;20.80;55.50
65752;DHT22;52486;51.098;13.770;2024-02-23T11:53:03;21.00;55.40
65752;DHT22;52486;51.098;13.770;2024-02-23T11:55:29;20.80;55.60
65752;DHT22;52486;51.098;13.770;2024-02-23T11:57:55;22.10;56.70
65752;DHT22;52486;51.098;13.770;2024-02-23T12:00:20;20.60;55.20
65752;DHT22;52486;51.098;13.770;2024-02-23T12:02:46;20.70;55.10
65752;DHT22;52486;51.098;13.770;2024-02-23T12:05:14;21.70;56.10
65752;DHT22;52486;51.098;13.770;2024-02-23T12:07:40;20.80;56.20
65752;DHT22;52486;51.098;13.770;2024-02-23T12:10:05;20.60;56.40
65752;DHT22;52486;51.098;13.770;2024-02-23T12:12:31;20.90;56.30
65752;DHT22;52486;51.098;13.770;2024-02-23T12:14:57;21.20;57.30
65752;DHT22;52486;51.098;13.770;2024-02-23T12:17:24;22.40;57.60
65752;DHT22;52486;51.098;13.770;2024-02-23T12:20:01;21.20;56.90
65752;DHT22;52486;51.098;13.770;2024-02-23T12:22:27;21.30;54.70
65752;DHT22;52486;51.098;13.770;2024-02-23T12:24:52;21.20;57.10
65752;DHT22;52486;51.098;13.770;2024-02-23T12:27:18;22.50;57.70
65752;DHT22;52486;51.098;13.770;2024-02-23T12:29:53;21.60;57.30
65752;DHT22;52486;51.098;13.770;2024-02-23T12:32:22;21.60;54.90
65752;DHT22;52486;51.098;13.770;2024-02-23T12:34:48;21.80;54.90
65752;DHT22;52486;51.098;13.770;2024-02-23T12:37:17;21.60;56.30
65752;DHT22;52486;51.098;13.770;2024-02-23T12:39:46;21.70;54.70
65752;DHT22;52486;51.098;13.770;2024-02-23T12:42:11;21.90;55.40
65752;DHT22;52486;51.098;13.770;2024-02-23T12:44:37;21.90;57.10
65752;DHT22;52486;51.098;13.770;2024-02-23T12:47:02;22.00;57.00
65752;DHT22;52486;51.098;13.770;2024-02-23T12:49:28;22.00;56.80
65752;DHT22;52486;51.098;13.770;2024-02-23T12:51:54;22.00;56.20
65752;DHT22;52486;51.098;13.770;2024-02-23T12:54:19;25.20;58.60
65752;DHT22;52486;51.098;13.770;2024-02-23T12:56:45;22.20;57.10
65752;DHT22;52486;51.098;13.770;2024-02-23T12:59:10;22.20;56.10
65752;DHT22;52486;51.098;13.770;2024-02-23T13:01:36;22.10;55.90
65752;DHT22;52486;51.098;13.770;2024-02-23T13:04:06;22.20;56.80
65752;DHT22;52486;51.098;13.770;2024-02-23T13:06:39;22.20;53.90
65752;DHT22;52486;51.098;13.770;2024-02-23T13:09:05;22.30;55.70
65752;DHT22;52486;51.098;13.770;2024-02-23T13:11:33;22.40;55.90
65752;DHT22;52486;51.098;13.770;2024-02-23T13:13:59;22.30;56.30
65752;DHT22;52486;51.098;13.770;2024-02-23T13:16:25;22.30;56.80
65752;DHT22;52486;51.098;13.770;2024-02-23T13:18:50;22.40;57.10
65752;DHT22;52486;51.098;13.770;2024-02-23T13:21:16;22.40;57.10
65752;DHT22;52486;51.098;13.770;2024-02-23T13:23:41;22.40;57.20
65752;DHT22;52486;51.098;13.770;2024-02-23T13:26:08;22.60;57.20
65752;DHT22;52486;51.098;13.770;2024-02-23T13:28:37;24.80;58.90
65752;DHT22;52486;51.098;13.770;2024-02-23T13:31:03;23.00;57.90
65752;DHT22;52486;51.098;13.770;2024-02-23T13:33:28;22.80;58.30
65752;DHT22;52486;51.098;13.770;2024-02-23T13:35:54;23.70;59.40
65752;DHT22;52486;51.098;13.770;2024-02-23T13:38:20;25.80;60.70
65752;DHT22;52486;51.098;13.770;2024-02-23T13:40:46;22.90;59.00
65752;DHT22;52486;51.098;13.770;2024-02-23T13:43:12;23.10;59.30
65752;DHT22;52486;51.098;13.770;2024-02-23T13:45:50;23.00;60.30
65752;DHT22;52486;51.098;13.770;2024-02-23T13:48:16;23.30;60.20
65752;DHT22;52486;51.098;13.770;2024-02-23T13:50:46;23.20;60.90
65752;DHT22;52486;51.098;13.770;2024-02-23T13:53:12;23.20;58.90
65752;DHT22;52486;51.098;13.770;2024-02-23T13:55:38;23.20;61.60
65752;DHT22;52486;51.098;13.770;2024-02-23T13:58:04;23.30;61.50
65752;DHT22;52486;51.098;13.770;2024-02-23T14:00:29;23.30;61.00
65752;DHT22;52486;51.098;13.770;2024-02-23T14:02:55;23.50;61.40
65752;DHT22;52486;51.098;13.770;2024-02-23T14:05:21;25.80;64.10
65752;DHT22;52486;51.098;13.770;2024-02-23T14:07:49;23.70;61.50
65752;DHT22;52486;51.098;13.770;2024-02-23T14:10:14;23.40;62.00
65752;DHT22;52486;51.098;13.770;2024-02-23T14:12:40;23.60;62.60
65752;DHT22;52486;51.098;13.770;2024-02-23T14:15:06;23.60;63.40
65752;DHT22;52486;51.098;13.770;2024-02-23T14:17:32;23.40;62.60
65752;DHT22;52486;51.098;13.770;2024-02-23T14:19:58;23.50;62.90
65752;DHT22;52486;51.098;13.770;2024-02-23T14:22:23;23.40;62.40
65752;DHT22;52486;51.098;13.770;2024-02-23T14:24:49;23.20;61.40
65752;DHT22;52486;51.098;13.770;2024-02-23T14:27:15;23.40;63.50
65752;DHT22;52486;51.098;13.770;2024-02-23T14:29:40;23.30;63.20
65752;DHT22;52486;51.098;13.770;2024-02-23T14:32:06;23.60;64.30
65752;DHT22;52486;51.098;13.770;2024-02-23T14:34:31;23.20;63.50
65752;DHT22;52486;51.098;13.770;2024-02-23T14:36:59;23.60;64.20
65752;DHT22;52486;51.098;13.770;2024-02-23T14:39:24;23.40;64.30
65752;DHT22;52486;51.098;13.770;2024-02-23T14:41:49;25.60;66.00
65752;DHT22;52486;51.098;13.770;2024-02-23T14:44:15;23.70;65.10
65752;DHT22;52486;51.098;13.770;2024-02-23T14:46:40;23.40;64.20
65752;DHT22;52486;51.098;13.770;2024-02-23T14:49:06;23.40;64.50
65752;DHT22;52486;51.098;13.770;2024-02-23T14:51:33;25.00;65.80
65752;DHT22;52486;51.098;13.770;2024-02-23T14:53:59;23.40;64.90
65752;DHT22;52486;51.098;13.770;2024-02-23T14:56:27;23.30;64.80
65752;DHT22;52486;51.098;13.770;2024-02-23T14:58:53;25.10;66.10
65752;DHT22;52486;51.098;13.770;2024-02-23T15:01:18;23.50;65.20
65752;DHT22;52486;51.098;13.770;2024-02-23T15:03:44;23.40;65.10
65752;DHT22;52486;51.098;13.770;2024-02-23T15:06:09;23.30;64.80
65752;DHT22;52486;51.098;13.770;2024-02-23T15:08:36;23.50;64.40
65752;DHT22;52486;51.098;13.770;2024-02-23T15:11:02;23.40;64.00